createdAt,value
2018-08-18T00:02:00.554Z,76.66
2018-08-18T00:05:05.581Z,76.67
2018-08-18T00:08:09.465Z,77.13
2018-08-18T00:11:13.425Z,76.61
2018-08-18T00:14:17.296Z,76.17
2018-08-18T00:17:21.186Z,76.39
2018-08-18T00:20:25.539Z,77.43
2018-08-18T00:23:29.771Z,76.67
2018-08-18T00:26:33.662Z,76.58
2018-08-18T00:29:37.662Z,77.23
2018-08-18T00:32:41.890Z,77.52
2018-08-18T00:35:46.013Z,76.84
2018-08-18T00:38:49.894Z,77.02
2018-08-18T00:41:54.664Z,76.90
2018-08-18T00:44:58.878Z,76.98
2018-08-18T00:48:02.761Z,76.75
2018-08-18T00:51:06.969Z,77.31
2018-08-18T00:54:11.184Z,77.19
2018-08-18T00:57:32.266Z,77.08
2018-08-18T01:00:36.482Z,77.52
2018-08-18T01:03:45.800Z,77.41
2018-08-18T01:06:49.677Z,77.56
2018-08-18T01:09:53.582Z,77.38
2018-08-18T01:12:57.543Z,77.01
2018-08-18T01:16:01.558Z,77.68
2018-08-18T01:19:05.549Z,77.29
2018-08-18T01:22:10.490Z,77.19
2018-08-18T01:25:14.368Z,77.85
2018-08-18T01:28:18.264Z,77.33
2018-08-18T01:31:24.003Z,77.74
2018-08-18T01:34:28.235Z,77.97
2018-08-18T01:37:32.400Z,77.71
2018-08-18T01:40:36.489Z,77.73
2018-08-18T01:43:41.247Z,77.84
2018-08-18T01:46:47.145Z,78.00
2018-08-18T01:49:51.028Z,77.51
2018-08-18T01:52:54.990Z,77.87
2018-08-18T01:55:58.880Z,77.37
2018-08-18T01:59:03.105Z,78.34
2018-08-18T02:02:11.721Z,78.25
2018-08-18T02:05:17.728Z,77.96
2018-08-18T02:08:21.613Z,78.23
2018-08-18T02:11:26.524Z,77.95
2018-08-18T02:14:30.584Z,78.16
2018-08-18T02:17:36.621Z,78.17
2018-08-18T02:20:40.497Z,78.10
2018-08-18T02:23:44.390Z,77.94
2018-08-18T02:26:48.258Z,78.16
2018-08-18T02:30:04.260Z,78.59
2018-08-18T02:33:08.728Z,78.63
2018-08-18T02:36:12.617Z,78.78
2018-08-18T02:39:16.511Z,78.75
2018-08-18T02:42:20.389Z,78.33
2018-08-18T02:45:24.323Z,77.77
2018-08-18T02:48:28.446Z,78.26
2018-08-18T02:51:33.169Z,78.01
2018-08-18T02:54:40.879Z,78.85
2018-08-18T02:57:45.018Z,78.29
2018-08-18T03:00:49.237Z,78.75
2018-08-18T03:03:53.113Z,78.68
2018-08-18T03:06:57.213Z,78.70
2018-08-18T03:10:03.461Z,78.16
2018-08-18T03:13:07.582Z,79.02
2018-08-18T03:16:12.101Z,78.71
2018-08-18T03:19:16.220Z,78.51
2018-08-18T03:22:20.195Z,78.51
2018-08-18T03:25:36.182Z,78.63
2018-08-18T03:28:49.237Z,78.60
2018-08-18T03:31:53.412Z,78.84
2018-08-18T03:34:57.306Z,79.17
2018-08-18T03:38:01.178Z,79.17
2018-08-18T03:41:05.100Z,78.98
2018-08-18T03:44:09.303Z,79.04
2018-08-18T03:47:13.405Z,78.96
2018-08-18T03:50:17.613Z,78.97
2018-08-18T03:53:21.554Z,79.36
2018-08-18T03:56:25.432Z,78.66
2018-08-18T03:59:29.302Z,79.37
2018-08-18T04:02:33.177Z,78.59
2018-08-18T04:05:37.067Z,79.33
2018-08-18T04:08:40.947Z,78.81
2018-08-18T04:11:45.365Z,79.38
2018-08-18T04:14:49.459Z,79.48
2018-08-18T04:17:53.916Z,79.08
2018-08-18T04:20:57.811Z,79.31
2018-08-18T04:24:01.841Z,79.58
2018-08-18T04:27:05.730Z,78.74
2018-08-18T04:30:13.360Z,79.70
2018-08-18T04:33:17.342Z,79.83
2018-08-18T04:36:21.221Z,79.49
2018-08-18T04:39:25.113Z,79.46
2018-08-18T04:42:29.339Z,79.44
2018-08-18T04:45:33.664Z,79.42
2018-08-18T04:48:37.562Z,79.60
2018-08-18T04:51:41.466Z,80.13
2018-08-18T04:54:45.357Z,79.66
2018-08-18T04:57:49.686Z,79.62
2018-08-18T05:00:54.046Z,79.34
2018-08-18T05:04:09.900Z,79.19
2018-08-18T05:07:13.781Z,79.48
2018-08-18T05:10:19.815Z,79.22
2018-08-18T05:13:24.421Z,78.73
2018-08-18T05:16:28.401Z,79.33
2018-08-18T05:19:32.271Z,78.81
2018-08-18T05:22:36.480Z,79.25
2018-08-18T05:25:41.416Z,79.25
2018-08-18T05:28:45.805Z,79.92
2018-08-18T05:31:49.684Z,79.44
2018-08-18T05:34:53.569Z,80.42
2018-08-18T05:37:57.787Z,79.93
2018-08-18T05:41:02.109Z,80.67
2018-08-18T05:44:06.236Z,80.69
2018-08-18T05:47:10.445Z,80.52
2018-08-18T05:50:14.732Z,81.48
2018-08-18T05:53:27.373Z,81.09
2018-08-18T05:56:31.269Z,81.63
2018-08-18T05:59:35.553Z,81.87
2018-08-18T06:02:43.802Z,80.64
2018-08-18T06:05:47.789Z,79.89
2018-08-18T06:08:52.172Z,79.80
2018-08-18T06:11:58.010Z,79.50
2018-08-18T06:15:03.488Z,79.75
2018-08-18T06:18:08.117Z,79.52
2018-08-18T06:21:12.376Z,79.72
2018-08-18T06:24:16.268Z,79.21
2018-08-18T06:27:21.272Z,80.05
2018-08-18T06:30:25.164Z,80.04
2018-08-18T06:33:29.821Z,79.45
2018-08-18T06:36:33.707Z,80.10
2018-08-18T06:40:03.051Z,79.48
2018-08-18T06:43:07.558Z,79.35
2018-08-18T06:46:12.012Z,79.84
2018-08-18T06:49:16.301Z,79.24
2018-08-18T06:52:20.745Z,79.93
2018-08-18T06:55:24.639Z,79.68
2018-08-18T06:58:28.760Z,79.77
2018-08-18T07:01:32.717Z,79.50
2018-08-18T07:04:36.593Z,79.94
2018-08-18T07:07:41.065Z,79.72
2018-08-18T07:10:44.957Z,79.91
2018-08-18T07:13:49.745Z,79.21
2018-08-18T07:16:53.834Z,78.95
2018-08-18T07:19:57.718Z,79.83
2018-08-18T07:23:01.599Z,79.84
2018-08-18T07:26:06.076Z,79.27
2018-08-18T07:29:10.063Z,78.98
2018-08-18T07:32:14.040Z,79.31
2018-08-18T07:35:18.496Z,79.47
2018-08-18T07:38:22.730Z,79.02
2018-08-18T07:41:26.621Z,79.48
2018-08-18T07:44:30.502Z,78.56
2018-08-18T07:47:36.277Z,78.94
2018-08-18T07:50:40.498Z,78.85
2018-08-18T07:53:44.715Z,79.37
2018-08-18T07:56:48.594Z,78.98
2018-08-18T07:59:52.549Z,78.33
2018-08-18T08:02:56.686Z,78.58
2018-08-18T08:06:00.582Z,79.54
2018-08-18T08:09:05.210Z,79.22
2018-08-18T08:12:09.096Z,79.12
2018-08-18T08:15:14.246Z,78.76
2018-08-18T08:18:18.181Z,78.69
2018-08-18T08:21:22.560Z,78.77
2018-08-18T08:24:26.553Z,79.05
2018-08-18T08:27:30.441Z,78.53
2018-08-18T08:30:34.657Z,78.04
2018-08-18T08:33:39.055Z,78.80
2018-08-18T08:36:43.499Z,79.01
2018-08-18T08:39:47.561Z,77.92
2018-08-18T08:42:51.836Z,78.35
2018-08-18T08:45:56.238Z,77.82
2018-08-18T08:49:01.127Z,78.24
2018-08-18T08:52:05.646Z,78.06
2018-08-18T08:55:09.725Z,78.10
2018-08-18T08:58:13.609Z,78.08
2018-08-18T09:01:17.473Z,77.61
2018-08-18T09:04:21.385Z,76.94
2018-08-18T09:07:25.265Z,76.79
2018-08-18T09:10:29.154Z,77.51
2018-08-18T09:13:33.568Z,77.45
2018-08-18T09:16:37.469Z,76.66
2018-08-18T09:19:41.561Z,76.18
2018-08-18T09:22:57.578Z,75.42
2018-08-18T09:26:01.730Z,74.72
2018-08-18T09:29:05.926Z,74.52
2018-08-18T09:32:09.815Z,75.07
2018-08-18T09:35:13.726Z,74.24
2018-08-18T09:38:17.634Z,74.87
2018-08-18T09:41:21.854Z,74.29
2018-08-18T09:44:31.611Z,74.26
2018-08-18T09:47:35.710Z,73.69
2018-08-18T09:50:39.586Z,72.79
2018-08-18T09:53:43.658Z,72.73
2018-08-18T09:56:47.732Z,72.93
2018-08-18T09:59:51.813Z,71.75
2018-08-18T10:02:55.708Z,71.04
2018-08-18T10:05:59.630Z,71.37
2018-08-18T10:09:04.029Z,70.47
2018-08-18T10:12:07.918Z,70.31
2018-08-18T10:15:11.852Z,68.79
2018-08-18T10:18:16.218Z,67.58
2018-08-18T10:21:20.083Z,68.15
2018-08-18T10:24:24.459Z,67.13
2018-08-18T10:27:28.326Z,68.29
2018-08-18T10:30:32.212Z,66.90
2018-08-18T10:33:36.096Z,67.84
2018-08-18T10:36:39.980Z,68.28
2018-08-18T10:39:43.859Z,68.63
2018-08-18T10:42:47.771Z,68.21
2018-08-18T10:45:51.986Z,69.21
2018-08-18T10:48:55.884Z,69.62
2018-08-18T10:52:11.147Z,68.87
2018-08-18T10:55:16.518Z,68.27
2018-08-18T10:58:31.669Z,69.29
2018-08-18T11:01:35.847Z,68.60
2018-08-18T11:04:39.738Z,69.50
2018-08-18T11:07:48.497Z,67.65
2018-08-18T11:10:52.386Z,68.73
2018-08-18T11:13:56.593Z,68.11
2018-08-18T11:17:00.800Z,67.07
2018-08-18T11:20:10.432Z,67.35
2018-08-18T11:23:15.260Z,67.34
2018-08-18T11:26:19.738Z,68.48
2018-08-18T11:29:23.607Z,67.07
2018-08-18T11:32:27.687Z,67.52
2018-08-18T11:35:32.457Z,67.21
2018-08-18T11:38:36.386Z,67.43
2018-08-18T11:41:40.543Z,66.74
2018-08-18T11:44:44.762Z,66.67
2018-08-18T11:47:59.954Z,66.70
2018-08-18T11:51:03.928Z,67.23
2018-08-18T11:54:07.799Z,67.54
2018-08-18T11:57:11.687Z,66.69
2018-08-18T12:00:15.919Z,66.88
2018-08-18T12:03:21.882Z,66.58
2018-08-18T12:06:25.760Z,66.44
2018-08-18T12:09:29.961Z,66.29
2018-08-18T12:12:34.184Z,66.28
2018-08-18T12:15:57.829Z,65.88
2018-08-18T12:19:02.137Z,65.37
2018-08-18T12:22:06.272Z,65.81
2018-08-18T12:25:10.144Z,65.65
2018-08-18T12:28:14.356Z,65.33
2018-08-18T12:31:32.870Z,66.17
2018-08-18T12:34:36.998Z,65.65
2018-08-18T12:37:40.881Z,64.37
2018-08-18T12:40:44.986Z,64.73
2018-08-18T12:43:50.649Z,64.35
2018-08-18T12:46:54.857Z,64.54
2018-08-18T12:49:59.166Z,63.75
2018-08-18T12:53:03.722Z,62.49
2018-08-18T12:56:07.821Z,63.25
2018-08-18T12:59:11.705Z,62.97
2018-08-18T13:02:15.689Z,62.84
2018-08-18T13:05:21.931Z,62.96
2018-08-18T13:08:25.793Z,61.56
2018-08-18T13:11:29.728Z,61.92
2018-08-18T13:14:33.809Z,62.74
2018-08-18T13:17:38.195Z,62.00
2018-08-18T13:20:42.116Z,61.86
2018-08-18T13:23:46.177Z,61.79
2018-08-18T13:26:50.080Z,60.30
2018-08-18T13:29:53.967Z,61.15
2018-08-18T13:32:59.169Z,60.85
2018-08-18T13:36:03.278Z,60.95
2018-08-18T13:39:11.321Z,59.95
2018-08-18T13:42:23.933Z,60.64
2018-08-18T13:45:40.949Z,59.68
2018-08-18T13:48:52.363Z,60.94
2018-08-18T13:51:56.242Z,60.21
2018-08-18T13:55:00.130Z,59.96
2018-08-18T13:58:04.000Z,59.40
2018-08-18T14:01:24.678Z,59.02
2018-08-18T14:04:29.509Z,59.26
2018-08-18T14:07:46.636Z,59.58
2018-08-18T14:10:50.560Z,58.67
2018-08-18T14:13:54.714Z,57.61
2018-08-18T14:16:58.926Z,58.27
2018-08-18T14:20:03.125Z,58.31
2018-08-18T14:23:08.434Z,57.86
2018-08-18T14:26:14.350Z,58.28
2018-08-18T14:29:18.777Z,57.18
2018-08-18T14:32:28.270Z,56.92
2018-08-18T14:35:32.155Z,56.45
2018-08-18T14:38:36.378Z,57.08
2018-08-18T14:41:45.268Z,56.99
2018-08-18T14:44:49.805Z,57.07
2018-08-18T14:47:53.825Z,55.99
2018-08-18T14:50:58.059Z,55.48
2018-08-18T14:54:01.985Z,56.44
2018-08-18T14:57:05.996Z,55.98
2018-08-18T15:00:09.899Z,56.28
2018-08-18T15:03:13.796Z,56.11
2018-08-18T15:06:17.887Z,55.31
2018-08-18T15:09:48.340Z,56.05
2018-08-18T15:12:52.437Z,55.21
2018-08-18T15:15:56.313Z,54.23
2018-08-18T15:19:00.517Z,54.90
2018-08-18T15:22:06.951Z,55.24
2018-08-18T15:25:10.831Z,55.76
2018-08-18T15:28:16.269Z,55.79
2018-08-18T15:31:20.155Z,55.08
2018-08-18T15:34:24.768Z,55.98
2018-08-18T15:37:28.661Z,56.18
2018-08-18T15:40:32.551Z,55.61
2018-08-18T15:43:36.445Z,56.14
2018-08-18T15:46:40.369Z,55.56
2018-08-18T15:49:44.289Z,56.15
2018-08-18T15:52:48.684Z,56.02
2018-08-18T15:55:52.889Z,55.87
2018-08-18T15:58:57.829Z,55.82
2018-08-18T16:02:01.954Z,57.08
2018-08-18T16:05:06.364Z,55.62
2018-08-18T16:08:10.246Z,56.02
2018-08-18T16:11:14.474Z,56.07
2018-08-18T16:14:18.356Z,56.23
2018-08-18T16:17:22.257Z,55.82
2018-08-18T16:20:26.998Z,56.24
2018-08-18T16:23:31.057Z,54.93
2018-08-18T16:26:35.020Z,55.21
2018-08-18T16:29:39.342Z,55.92
2018-08-18T16:32:43.209Z,56.17
2018-08-18T16:35:47.302Z,55.24
2018-08-18T16:38:51.165Z,55.58
2018-08-18T16:41:55.058Z,55.37
2018-08-18T16:44:58.969Z,56.37
2018-08-18T16:48:03.068Z,56.25
2018-08-18T16:51:06.649Z,55.61
2018-08-18T16:54:21.179Z,56.44
2018-08-18T16:57:25.064Z,56.28
2018-08-18T17:00:29.293Z,55.88
2018-08-18T17:03:34.448Z,56.01
2018-08-18T17:06:38.316Z,55.68
2018-08-18T17:09:43.303Z,57.08
2018-08-18T17:12:47.225Z,56.72
2018-08-18T17:15:51.734Z,56.26
2018-08-18T17:18:55.626Z,56.29
2018-08-18T17:21:59.505Z,56.61
2018-08-18T17:25:04.099Z,56.92
2018-08-18T17:28:08.306Z,57.55
2018-08-18T17:31:12.197Z,57.58
2018-08-18T17:34:16.069Z,57.80
2018-08-18T17:37:19.959Z,58.39
2018-08-18T17:40:24.152Z,57.25
2018-08-18T17:43:28.097Z,57.42
2018-08-18T17:46:32.322Z,57.61
2018-08-18T17:49:45.420Z,57.56
2018-08-18T17:52:49.627Z,57.98
2018-08-18T17:56:02.729Z,58.00
2018-08-18T17:59:06.603Z,57.37
2018-08-18T18:02:12.967Z,57.91
2018-08-18T18:05:21.833Z,57.07
2018-08-18T18:08:26.154Z,56.95
2018-08-18T18:11:31.061Z,57.62
2018-08-18T18:14:34.957Z,57.42
2018-08-18T18:17:39.212Z,57.63
2018-08-18T18:20:45.033Z,57.59
2018-08-18T18:23:48.943Z,58.00
2018-08-18T18:26:52.840Z,57.67
2018-08-18T18:29:56.729Z,57.56
2018-08-18T18:33:01.173Z,57.89
2018-08-18T18:36:05.062Z,57.67
2018-08-18T18:39:08.978Z,58.36
2018-08-18T18:42:12.870Z,58.59
2018-08-18T18:45:17.079Z,58.63
2018-08-18T18:48:21.166Z,57.86
2018-08-18T18:51:25.405Z,57.87
2018-08-18T18:54:29.673Z,58.82
2018-08-18T18:57:33.959Z,59.13
2018-08-18T19:00:39.509Z,58.25
2018-08-18T19:03:43.489Z,58.84
2018-08-18T19:06:56.092Z,58.72
2018-08-18T19:10:03.593Z,58.67
2018-08-18T19:13:08.514Z,58.40
2018-08-18T19:16:12.766Z,58.29
2018-08-18T19:19:17.261Z,59.20
2018-08-18T19:22:21.394Z,58.43
2018-08-18T19:25:25.276Z,58.75
2018-08-18T19:28:29.149Z,59.07
2018-08-18T19:31:35.402Z,58.75
2018-08-18T19:34:39.538Z,58.83
2018-08-18T19:37:48.930Z,59.83
2018-08-18T19:40:54.187Z,60.13
2018-08-18T19:43:58.260Z,60.19
2018-08-18T19:47:02.141Z,59.56
2018-08-18T19:50:07.166Z,59.77
2018-08-18T19:53:11.473Z,60.54
2018-08-18T19:56:15.365Z,60.95
2018-08-18T19:59:19.429Z,60.33
2018-08-18T20:02:23.312Z,60.84
2018-08-18T20:05:27.570Z,60.64
2018-08-18T20:08:31.442Z,61.08
2018-08-18T20:11:35.922Z,61.41
2018-08-18T20:14:40.181Z,61.67
2018-08-18T20:17:44.709Z,61.69
2018-08-18T20:20:48.916Z,61.38
2018-08-18T20:23:52.809Z,61.50
2018-08-18T20:26:56.697Z,62.13
2018-08-18T20:30:00.920Z,61.73
2018-08-18T20:33:05.346Z,61.83
2018-08-18T20:36:09.242Z,61.50
2018-08-18T20:39:13.320Z,62.44
2018-08-18T20:42:20.565Z,61.96
2018-08-18T20:45:26.405Z,61.89
2018-08-18T20:48:30.553Z,61.68
2018-08-18T20:51:34.597Z,62.39
2018-08-18T20:54:38.474Z,62.55
2018-08-18T20:57:42.369Z,62.94
2018-08-18T21:00:46.653Z,63.36
2018-08-18T21:03:50.994Z,62.58
2018-08-18T21:06:54.890Z,63.42
2018-08-18T21:09:59.729Z,63.05
2018-08-18T21:13:03.665Z,62.54
2018-08-18T21:16:07.958Z,63.66
2018-08-18T21:19:11.850Z,62.86
2018-08-18T21:22:15.765Z,62.57
2018-08-18T21:25:19.637Z,63.21
2018-08-18T21:28:25.288Z,63.39
2018-08-18T21:31:34.481Z,63.27
2018-08-18T21:34:43.660Z,63.46
2018-08-18T21:37:47.556Z,63.66
2018-08-18T21:40:51.766Z,63.63
2018-08-18T21:43:55.995Z,63.78
2018-08-18T21:47:00.322Z,63.98
2018-08-18T21:50:04.358Z,63.97
2018-08-18T21:53:08.237Z,63.74
2018-08-18T21:56:12.466Z,63.94
2018-08-18T21:59:16.573Z,63.23
2018-08-18T22:02:32.050Z,63.81
2018-08-18T22:05:36.509Z,63.65
2018-08-18T22:08:40.469Z,64.03
2018-08-18T22:11:44.367Z,64.52
2018-08-18T22:14:48.916Z,64.47
2018-08-18T22:17:53.049Z,64.42
2018-08-18T22:20:57.132Z,64.72
2018-08-18T22:24:02.403Z,65.01
2018-08-18T22:27:06.826Z,64.69
2018-08-18T22:30:12.874Z,64.64
2018-08-18T22:33:16.877Z,64.47
2018-08-18T22:36:21.405Z,65.27
2018-08-18T22:39:25.294Z,64.83
2018-08-18T22:42:29.517Z,64.88
2018-08-18T22:45:33.732Z,65.09
2018-08-18T22:48:37.699Z,65.62
2018-08-18T22:51:41.757Z,65.20
2018-08-18T22:54:45.649Z,64.86
2018-08-18T22:57:58.997Z,65.90
2018-08-18T23:01:02.889Z,66.10
2018-08-18T23:04:21.849Z,65.87
2018-08-18T23:07:25.973Z,66.17
2018-08-18T23:10:30.997Z,65.91
2018-08-18T23:13:35.083Z,66.82
2018-08-18T23:16:39.309Z,65.96
2018-08-18T23:19:43.511Z,66.37
2018-08-18T23:22:55.965Z,66.19
2018-08-18T23:25:59.842Z,66.25
2018-08-18T23:29:03.726Z,66.55
2018-08-18T23:32:26.935Z,66.82
2018-08-18T23:35:31.171Z,65.90
2018-08-18T23:38:35.819Z,66.15
2018-08-18T23:41:40.074Z,66.11
2018-08-18T23:44:44.086Z,67.01
2018-08-18T23:47:55.270Z,67.03
2018-08-18T23:50:59.353Z,67.37
2018-08-18T23:54:07.057Z,66.83
2018-08-18T23:57:10.941Z,67.28
